createdAt,value
2023-05-05T00:00:23.177Z,74.839
2023-05-05T00:05:35.292Z,76.38456
2023-05-05T00:16:07.656Z,76.59335
2023-05-05T00:21:19.762Z,76.2641
2023-05-05T00:26:32.014Z,75.00685
2023-05-05T00:31:44.170Z,74.30614
2023-05-05T00:36:56.748Z,73.94273
2023-05-05T00:42:08.867Z,75.18472
2023-05-05T00:47:21.084Z,74.41695
2023-05-05T00:52:33.329Z,73.54357
2023-05-05T00:57:46.340Z,74.97105
2023-05-05T01:02:58.704Z,74.1587
2023-05-05T01:08:10.861Z,77.26827
2023-05-05T01:13:23.102Z,77.68628
2023-05-05T01:18:35.217Z,75.32516
2023-05-05T01:23:47.386Z,77.66257
2023-05-05T01:28:59.560Z,78.46246
2023-05-05T01:34:11.961Z,78.05167
2023-05-05T01:39:24.054Z,78.69736
2023-05-05T01:44:36.156Z,78.87164
2023-05-05T01:49:48.424Z,77.36824
2023-05-05T01:50:00.541Z,76.74263
2023-05-05T01:55:12.807Z,79.12056
2023-05-05T02:00:25.530Z,76.73054
2023-05-05T02:05:37.968Z,78.93341
2023-05-05T02:10:50.064Z,76.42734
2023-05-05T02:16:02.240Z,77.6416
2023-05-05T02:21:14.365Z,81.13628
2023-05-05T02:26:26.491Z,78.63701
2023-05-05T02:31:39.506Z,77.93708
2023-05-05T02:36:51.652Z,81.65057
2023-05-05T02:42:04.498Z,80.21183
2023-05-05T02:47:16.623Z,81.66702
2023-05-05T02:52:28.741Z,81.50359
2023-05-05T02:57:40.851Z,81.34218
2023-05-05T03:02:53.015Z,82.42078
2023-05-05T03:08:05.306Z,81.96903
2023-05-05T03:13:18.160Z,79.71151
2023-05-05T03:18:30.288Z,79.67455
2023-05-05T03:23:42.412Z,79.80545
2023-05-05T03:28:54.533Z,78.53856
2023-05-05T03:34:06.659Z,82.85519
2023-05-05T03:39:18.795Z,81.18996
2023-05-05T03:44:31.083Z,83.22098
2023-05-05T03:49:43.264Z,82.41066
2023-05-05T03:54:55.385Z,84.00883
2023-05-05T04:00:08.110Z,84.21446
2023-05-05T04:05:20.490Z,83.97276
2023-05-05T04:10:32.612Z,84.38235
2023-05-05T04:15:44.725Z,85.10517
2023-05-05T04:20:57.261Z,84.84177
2023-05-05T04:26:09.496Z,84.53421
2023-05-05T04:31:21.695Z,83.83718
2023-05-05T04:36:33.994Z,83.16782
2023-05-05T04:41:46.234Z,83.39312
2023-05-05T04:46:58.522Z,82.32905
2023-05-05T04:52:10.772Z,84.52876
2023-05-05T04:57:22.964Z,83.59719
2023-05-05T05:02:35.170Z,83.44061
2023-05-05T05:07:47.415Z,83.21857
2023-05-05T05:12:59.584Z,84.47223
2023-05-05T05:13:12.877Z,84.6188
2023-05-05T05:18:25.292Z,84.15906
2023-05-05T05:23:37.392Z,83.70975
2023-05-05T05:28:49.567Z,83.91257
2023-05-05T05:34:01.657Z,83.75282
2023-05-05T05:39:13.760Z,84.27664
2023-05-05T05:44:27.930Z,83.98297
2023-05-05T05:49:40.103Z,82.39579
2023-05-05T05:54:52.277Z,79.77906
2023-05-05T06:00:09.914Z,80.08075
2023-05-05T06:05:22.573Z,74.29455
2023-05-05T06:10:37.152Z,72.20175
2023-05-05T06:15:49.289Z,71.47141
2023-05-05T06:21:02.810Z,72.37696
2023-05-05T06:26:15.025Z,70.21187
2023-05-05T06:31:27.263Z,69.14864
2023-05-05T06:36:39.475Z,68.49535
2023-05-05T06:41:51.741Z,66.96029
2023-05-05T06:47:03.899Z,67.17557
2023-05-05T06:52:16.063Z,67.67994
2023-05-05T06:57:28.346Z,66.82788
2023-05-05T07:02:40.482Z,64.74589
2023-05-05T07:07:52.669Z,65.698
2023-05-05T07:13:04.817Z,62.64546
2023-05-05T07:18:17.005Z,62.71335
2023-05-05T07:23:29.228Z,62.68766
2023-05-05T07:28:41.330Z,64.79295
2023-05-05T07:33:53.462Z,63.79428
2023-05-05T07:34:05.637Z,63.49674
2023-05-05T07:39:17.761Z,65.39002
2023-05-05T07:44:30.601Z,64.57166
2023-05-05T07:49:43.310Z,65.92886
2023-05-05T07:54:55.449Z,65.98746
2023-05-05T08:00:07.760Z,66.09183
2023-05-05T08:05:20.110Z,67.88391
2023-05-05T08:10:33.840Z,67.69514
2023-05-05T08:15:46.214Z,70.31763
2023-05-05T08:20:58.364Z,70.41801
2023-05-05T08:26:12.200Z,69.69722
2023-05-05T08:31:24.385Z,70.32683
2023-05-05T08:36:36.564Z,69.08967
2023-05-05T08:41:49.630Z,69.86143
2023-05-05T08:47:06.855Z,68.67888
2023-05-05T08:52:19.051Z,69.21739
2023-05-05T08:57:31.344Z,69.11302
2023-05-05T09:02:44.213Z,68.98498
2023-05-05T09:07:56.476Z,66.41958
2023-05-05T09:13:08.756Z,68.52621
2023-05-05T09:18:20.876Z,65.48945
2023-05-05T09:23:36.847Z,62.20491
2023-05-05T09:28:50.748Z,62.8821
2023-05-05T09:34:02.863Z,60.23494
2023-05-05T09:39:14.988Z,57.48295
2023-05-05T09:44:27.157Z,56.34844
2023-05-05T09:49:39.266Z,52.82671
2023-05-05T09:54:51.384Z,47.91311
2023-05-05T10:00:03.636Z,45.79992
2023-05-05T10:05:16.000Z,41.37735
2023-05-05T10:10:29.074Z,39.8074
2023-05-05T10:15:41.396Z,43.17799
2023-05-05T10:20:54.026Z,43.11057
2023-05-05T10:26:07.582Z,42.81582
2023-05-05T10:31:25.625Z,39.57489
2023-05-05T10:36:38.923Z,43.21484
2023-05-05T10:41:51.091Z,43.06298
2023-05-05T10:47:03.241Z,43.4484
2023-05-05T10:52:20.746Z,44.88668
2023-05-05T10:57:32.949Z,47.41922
2023-05-05T11:02:45.066Z,46.40966
2023-05-05T11:02:57.738Z,46.17916
2023-05-05T11:08:10.400Z,44.16496
2023-05-05T11:13:22.628Z,44.54959
2023-05-05T11:18:35.473Z,45.98319
2023-05-05T11:23:48.187Z,45.75238
2023-05-05T11:29:00.420Z,42.88093
2023-05-05T11:34:13.045Z,41.80279
2023-05-05T11:39:27.534Z,43.6408
2023-05-05T11:44:39.656Z,37.98356
2023-05-05T11:49:51.794Z,44.28632
2023-05-05T11:55:04.107Z,43.12156
2023-05-05T12:00:16.224Z,39.86956
2023-05-05T12:05:28.331Z,39.70581
2023-05-05T12:10:40.440Z,35.62569
2023-05-05T12:15:52.736Z,34.19178
2023-05-05T12:21:05.037Z,35.69545
2023-05-05T12:26:17.283Z,37.28839
2023-05-05T12:31:29.514Z,36.79891
2023-05-05T12:36:43.329Z,37.14338
2023-05-05T12:41:55.433Z,34.93953
2023-05-05T12:47:07.533Z,40.35065
2023-05-05T12:52:19.654Z,37.70983
2023-05-05T12:57:31.910Z,39.70359
2023-05-05T13:02:49.259Z,35.27257
2023-05-05T13:08:01.772Z,34.65444
2023-05-05T13:13:15.579Z,36.30629
2023-05-05T13:18:27.722Z,36.75555
2023-05-05T13:23:43.049Z,36.66
2023-05-05T13:28:55.173Z,37.37207
2023-05-05T13:34:10.250Z,38.10615
2023-05-05T13:39:22.571Z,39.19771
2023-05-05T13:44:35.191Z,36.46317
2023-05-05T13:49:47.336Z,34.02898
2023-05-05T13:54:59.625Z,35.86062
2023-05-05T14:00:12.297Z,37.42891
2023-05-05T14:05:24.426Z,38.29778
2023-05-05T14:10:36.564Z,38.85146
2023-05-05T14:15:48.683Z,38.5739
2023-05-05T14:21:00.791Z,39.81376
2023-05-05T14:26:13.033Z,40.00959
2023-05-05T14:31:25.227Z,41.25516
2023-05-05T14:36:38.282Z,42.66737
2023-05-05T14:41:50.389Z,41.97866
2023-05-05T14:47:02.505Z,43.33825
2023-05-05T14:52:16.590Z,44.14209
2023-05-05T14:57:28.864Z,44.79293
2023-05-05T15:02:41.084Z,44.59088
2023-05-05T15:07:53.779Z,45.90226
2023-05-05T15:13:08.451Z,47.77417
2023-05-05T15:18:22.269Z,47.72388
2023-05-05T15:23:34.440Z,48.13702
2023-05-05T15:33:58.982Z,50.28721
2023-05-05T15:39:11.116Z,51.1565
2023-05-05T15:44:23.744Z,54.28528
2023-05-05T15:49:35.858Z,58.46292
2023-05-05T15:54:48.022Z,60.84159
2023-05-05T16:00:02.648Z,61.84053
2023-05-05T16:05:14.849Z,66.36549
2023-05-05T16:10:27.871Z,69.59626
2023-05-05T16:15:39.991Z,72.08054
2023-05-05T16:20:52.233Z,72.43544
2023-05-05T16:26:04.498Z,74.06045
2023-05-05T16:31:16.630Z,76.772
2023-05-05T16:36:29.859Z,77.6935
2023-05-05T16:41:41.996Z,74.29318
2023-05-05T16:46:54.120Z,76.55989
2023-05-05T16:52:06.243Z,76.63738
2023-05-05T16:57:18.423Z,79.14262
2023-05-05T17:02:30.545Z,79.03301
2023-05-05T17:07:42.692Z,78.7339
2023-05-05T17:12:54.841Z,78.44482
2023-05-05T17:18:06.981Z,77.66262
2023-05-05T17:18:19.133Z,77.94813
2023-05-05T17:23:31.243Z,75.27223
2023-05-05T17:28:43.376Z,76.78566
2023-05-05T17:33:55.512Z,75.58784
2023-05-05T17:39:07.616Z,74.92969
2023-05-05T17:44:19.730Z,75.26538
2023-05-05T17:44:31.894Z,74.82127
2023-05-05T17:49:44.191Z,74.87468
2023-05-05T17:54:56.310Z,74.24263
2023-05-05T18:00:08.589Z,74.56343
2023-05-05T18:05:20.799Z,74.93483
2023-05-05T18:10:32.921Z,75.37329
2023-05-05T18:15:45.074Z,74.9147
2023-05-05T18:20:59.466Z,75.77516
2023-05-05T18:26:11.714Z,76.38708
2023-05-05T18:31:23.837Z,76.75163
2023-05-05T18:36:36.781Z,77.57233
2023-05-05T18:41:48.914Z,76.79611
2023-05-05T18:47:01.563Z,78.56608
2023-05-05T18:52:13.744Z,78.04282
2023-05-05T18:57:26.370Z,78.70332
2023-05-05T19:02:38.565Z,80.20506
2023-05-05T19:02:50.779Z,80.92062
2023-05-05T19:08:02.967Z,81.07196
2023-05-05T19:13:15.605Z,82.46451
2023-05-05T19:18:27.766Z,81.40802
2023-05-05T19:23:39.874Z,78.98908
2023-05-05T19:28:53.005Z,82.05891
2023-05-05T19:34:05.167Z,80.83016
2023-05-05T19:39:17.423Z,81.9127
2023-05-05T19:44:29.609Z,81.65009
2023-05-05T19:49:41.722Z,83.10408
2023-05-05T19:54:53.824Z,83.75539
2023-05-05T20:00:05.957Z,83.23015
2023-05-05T20:05:18.118Z,82.01546
2023-05-05T20:10:30.342Z,87.09343
2023-05-05T20:15:42.548Z,85.90324
2023-05-05T20:20:54.797Z,84.91422
2023-05-05T20:26:07.119Z,82.63423
2023-05-05T20:31:20.366Z,85.28002
2023-05-05T20:36:32.574Z,85.84418
2023-05-05T20:41:44.832Z,88.0579
2023-05-05T20:46:57.537Z,86.83398
2023-05-05T20:52:09.878Z,85.88311
2023-05-05T20:57:22.054Z,84.49897
2023-05-05T21:02:34.244Z,82.17039
2023-05-05T21:07:46.457Z,85.4173
2023-05-05T21:12:58.874Z,84.64954
2023-05-05T21:18:11.570Z,84.68887
2023-05-05T21:23:23.796Z,85.02296
2023-05-05T21:28:36.037Z,84.98601
2023-05-05T21:33:48.140Z,83.72234
2023-05-05T21:39:00.491Z,85.19439
2023-05-05T21:44:12.883Z,84.9651
2023-05-05T21:49:25.051Z,83.86324
2023-05-05T21:54:37.674Z,83.5412
2023-05-05T21:59:49.851Z,84.02627
2023-05-05T22:05:02.004Z,84.84702
2023-05-05T22:10:14.635Z,84.94138
2023-05-05T22:15:30.099Z,83.69617
2023-05-05T22:20:45.157Z,83.53275
2023-05-05T22:26:01.146Z,84.02705
2023-05-05T22:31:13.345Z,84.64944
2023-05-05T22:36:27.044Z,87.01133
2023-05-05T22:41:39.339Z,85.14655
2023-05-05T22:46:51.707Z,86.58367
2023-05-05T22:52:04.973Z,87.61042
2023-05-05T22:57:17.196Z,89.28407
2023-05-05T23:02:29.517Z,88.82469
2023-05-05T23:07:41.614Z,85.99258
2023-05-05T23:12:54.244Z,86.18009
2023-05-05T23:18:06.400Z,86.98399
2023-05-05T23:23:18.662Z,86.66796
2023-05-05T23:28:30.846Z,86.81572
2023-05-05T23:33:43.142Z,87.42888
2023-05-05T23:38:55.260Z,86.14672
2023-05-05T23:44:07.745Z,85.18501
2023-05-05T23:49:20.554Z,85.32633
2023-05-05T23:54:32.740Z,89.34661
2023-05-05T23:59:44.856Z,87.6356
